• Join FlightAware (Why Join?)
  • Login
  • US Flag GB Flag 
09:00 EDT


 

Airport Tracker/Info


-or-


 

Live Flight TrackerFlight Track Log ✈ SWA2182 ✈ 15-Apr-2013 ✈ KSMF - KSAN

Flight Track Log - Related Links

Times and Time Zones

All times are in EDT time to prevent confusion due to time zone crossing. See the SWA2182 flight status page for this flight to view local times or setup timezone preferences in your user account.

Time Position Orientation Groundspeed Altitude Reporting Facility
EDT Latitude Longitude Course Direction KTS MPH feet Rate Location/Type
09:08 38.7500 -121.5833 134° Southeast 192 221 2,800  Level Northern Cal TRACON
09:09 38.7000 -121.5333 142° Southeast 238 274 5,800 2,760 Climbing Northern Cal TRACON
09:10 38.6500 -121.5000 152° Southeast 273 314 7,800 2,580 Climbing Northern Cal TRACON
09:12 38.5781 -121.3553 122° Southeast 327 376 11,800 2,940 Climbing Oakland Center
09:13 38.5203 -121.2439 124° Southeast 366 421 15,300 3,300 Climbing Oakland Center
09:14 38.3370 -121.3028 134° Southeast  Level Estimated
09:14 38.4544 -121.1156 123° Southeast 408 470 18,500  Level Oakland Center
09:15 38.3686 -121.0053 135° Southeast 446 513 21,200 2,820 Climbing Oakland Center
09:16 38.2536 -120.9344 154° Southeast 456 525 24,300 3,000 Climbing Oakland Center
09:17 38.1369 -120.8611 154° Southeast 464 534 27,300 2,520 Climbing Oakland Center
09:18 38.0178 -120.7867 154° Southeast 473 544 29,400 1,980 Climbing Oakland Center
09:19 37.8950 -120.7125 155° Southeast 485 558 31,400 1,920 Climbing Oakland Center
09:20 37.7678 -120.6347 154° Southeast 503 579 33,300 1,980 Climbing Oakland Center
09:21 37.6417 -120.5592 155° Southeast 501 577 35,400 1,800 Climbing Oakland Center
09:22 37.5158 -120.4819 154° Southeast 502 578 37,000 1,560 Climbing Oakland Center
09:23 37.3908 -120.4069 155° Southeast 497 572 38,600 1,380 Climbing Oakland Center
09:24 37.2639 -120.3356 156° South 500 575 39,800 1,080 Climbing Oakland Center
09:25 37.1392 -120.2600 154° Southeast 495 570 40,800 540 Climbing Oakland Center
09:26 37.0136 -120.1861 155° Southeast 497 572 41,000 60 Climbing Oakland Center
09:27 36.9031 -120.1203 155° Southeast 491 565 41,000  Level Oakland Center
09:28 36.7789 -120.0464 155° Southeast 491 565 41,000  Level Oakland Center
09:29 36.6311 -119.9586 155° Southeast 489 563 41,000  Level Oakland Center
09:30 36.5092 -119.8867 155° Southeast 485 558 41,000  Level Oakland Center
09:31 36.3872 -119.8147 155° Southeast 482 555 41,000  Level Oakland Center
09:32 36.2656 -119.7444 155° Southeast 481 554 41,000  Level Oakland Center
09:33 36.1439 -119.6736 155° Southeast 480 552 41,000  Level Oakland Center
09:34 36.0225 -119.6036 155° Southeast 479 551 41,000  Level Oakland Center
09:35 35.9039 -119.5358 155° Southeast 468 539 41,000  Level Oakland Center
09:36 35.7811 -119.4664 155° Southeast 479 551 41,000  Level Oakland Center
09:37 35.6578 -119.3944 155° Southeast 485 558 41,000  Level Oakland Center
09:38 35.5367 -119.3264 155° Southeast 478 550 41,000  Level Los Angeles Center
09:39 35.4139 -119.2567 155° Southeast 481 554 41,000  Level Los Angeles Center
09:40 35.2944 -119.1889 155° Southeast 476 548 41,000  Level Los Angeles Center
09:41 35.1742 -119.1208 155° Southeast 474 545 41,000  Level Los Angeles Center
09:42 35.0542 -119.0533 155° Southeast 473 544 41,000  Level Los Angeles Center
09:43 34.9342 -118.9864 155° Southeast 474 545 41,000  Level Los Angeles Center
09:44 34.8003 -118.9111 155° Southeast 476 548 41,000  Level Los Angeles Center
09:45 34.6808 -118.8447 155° Southeast 472 543 41,000  Level Los Angeles Center
09:46 34.5617 -118.7800 156° South 470 541 41,000  Level Los Angeles Center
09:47 34.4417 -118.7136 155° Southeast 473 544 41,000  Level Los Angeles Center
09:48 34.3231 -118.6483 156° South 470 541 41,000  Level Los Angeles Center
09:49 34.2053 -118.5831 155° Southeast 467 537 41,000 -180 Level Los Angeles Center
09:50 34.0636 -118.5053 156° South 466 536 40,600 -1,560 Descending Los Angeles Center
09:52 33.9239 -118.4158 152° Southeast 481 554 37,200 -3,120 Descending Los Angeles Center
09:53 33.8086 -118.2783 135° Southeast 493 567 33,700 -3,060 Descending Los Angeles Center
09:54 33.7081 -118.1436 132° Southeast 496 571 31,000 -1,500 Descending Los Angeles Center
09:55 33.6153 -118.0258 133° Southeast 486 559 30,700 -1,800 Descending Los Angeles Center
09:56 33.5233 -117.9100 134° Southeast 479 551 27,400 -3,180 Descending Los Angeles Center
09:57 33.4314 -117.7942 134° Southeast 480 552 24,300 -3,300 Descending Los Angeles Center
09:57 33.3833 -117.7500 142° Southeast 476 548 22,800 -3,300 Descending Southern California TRACON
09:58 33.3406 -117.6806 126° Southeast 473 544 21,000 -3,180 Descending Los Angeles Center
09:58 33.2833 -117.6000 130° Southeast 463 533 19,000 -2,580 Descending Southern California TRACON
09:59 33.1833 -117.5333 151° Southeast 435 501 17,000 -1,800 Descending Southern California TRACON
10:00 33.0833 -117.4500 145° Southeast 387 445 15,400 -1,560 Descending Southern California TRACON
10:01 33.0583 -117.4344 152° Southeast 390 449 14,700 -2,220 Descending Los Angeles Center
10:02 32.9536 -117.3553 148° Southeast 374 430 12,000 -2,340 Descending Los Angeles Center
10:03 32.9167 -117.3167 139° Southeast 367 422 11,000 -1,200 Descending Southern California TRACON
10:03 32.8667 -117.2167 121° Southeast 349 402 10,300 -1,020 Descending Southern California TRACON
10:04 32.8525 -117.1581 106° East 357 411 9,500 -1,500 Descending Los Angeles Center
10:04 32.8333 -117.1167 119° Southeast 371 427 8,800 -1,500 Descending Southern California TRACON
10:05 32.8000 -117.0167 112° Southeast 319 367 7,400 -1,260 Descending Southern California TRACON
10:06 32.7667 -116.9167 112° Southeast 287 330 6,300 -1,020 Descending Southern California TRACON
10:07 32.7483 -116.8667 114° Southeast 289 333 5,800 -660 Descending Los Angeles Center
10:08 32.7719 -116.8083 64° Northeast 255 293 5,200 -420 Descending Los Angeles Center
10:09 32.8006 -116.8681 300° West 229 264 5,000 -180 Descending Los Angeles Center
10:09 32.8000 -116.9000 269° West 217 250 5,000  Level Southern California TRACON
10:10 32.7833 -116.9333 239° Southwest 234 269 5,000  Level Southern California TRACON
10:11 32.7167 -116.9500 192° South 232 267 5,000  Level Southern California TRACON
10:12 32.6500 -116.9667 192° South 237 273 5,000  Level Southern California TRACON
10:13 32.6161 -117.0064 225° Southwest 228 262 5,000  Level Los Angeles Center
10:14 32.5947 -117.0711 249° West 215 247 5,000  Level Los Angeles Center
10:15 32.5833 -117.1333 258° West 215 247 5,000  Level Southern California TRACON
10:16 32.5500 -117.2000 239° Southwest 209 241 5,000  Level Southern California TRACON
10:17 32.5333 -117.2667 253° West 211 243 5,000  Level Southern California TRACON
10:18 32.5167 -117.3167 248° West 209 241 5,000  Level Southern California TRACON
10:19 32.5167 -117.4000 270° West 202 232 5,000  Level Southern California TRACON
10:20 32.5500 -117.4500 308° West 216 249 5,000  Level Southern California TRACON
10:21 32.6000 -117.4500 360° North 210 242 5,000 -360 Level Southern California TRACON
10:22 32.6500 -117.4500 360° North 216 249 4,400 -720 Descending Southern California TRACON
10:23 32.6783 -117.4589 345° North 211 243 4,000 -1,080 Descending Los Angeles Center
10:24 32.7406 -117.4553 North 231 266 2,900 -1,020 Descending Los Angeles Center
10:25 32.7708 -117.3978 58° Northeast 224 258 2,000 -480 Descending Los Angeles Center
10:26 32.7714 -117.3456 89° East 176 203 2,000 -240 Level Los Angeles Center
10:27 32.7500 -117.2667 108° East 134 154 1,400 -540 Descending Southern California TRACON
10:28 32.7478 -117.2528 101° East 145 167 1,000 -780 Descending Los Angeles Center
10:29 32.7392 -117.2139 105° East 132 152 200 -840 Descending Los Angeles Center